sensor_id;sensor_type;location;lat;lon;timestamp;temperature;humidity
18305;DHT22;9278;52.156;21.048;2022-12-18T00:00:07;-4.80;60.60
18305;DHT22;9278;52.156;21.048;2022-12-18T00:02:44;-4.80;56.10
18305;DHT22;9278;52.156;21.048;2022-12-18T00:05:13;-4.80;44.90
18305;DHT22;9278;52.156;21.048;2022-12-18T00:07:41;-4.70;56.90
18305;DHT22;9278;52.156;21.048;2022-12-18T00:10:09;-4.60;53.40
18305;DHT22;9278;52.156;21.048;2022-12-18T00:12:41;-4.50;77.30
18305;DHT22;9278;52.156;21.048;2022-12-18T00:15:09;-4.60;46.50
18305;DHT22;9278;52.156;21.048;2022-12-18T00:17:37;-4.60;26.20
18305;DHT22;9278;52.156;21.048;2022-12-18T00:20:08;-4.60;37.40
18305;DHT22;9278;52.156;21.048;2022-12-18T00:22:37;-4.60;19.60
18305;DHT22;9278;52.156;21.048;2022-12-18T00:25:05;-4.60;26.50
18305;DHT22;9278;52.156;21.048;2022-12-18T00:27:34;-4.60;16.30
18305;DHT22;9278;52.156;21.048;2022-12-18T00:30:03;-4.60;1.00
18305;DHT22;9278;52.156;21.048;2022-12-18T00:32:32;-4.50;1.00
18305;DHT22;9278;52.156;21.048;2022-12-18T00:35:01;-4.60;1.00
18305;DHT22;9278;52.156;21.048;2022-12-18T00:37:33;-4.50;1.00
18305;DHT22;9278;52.156;21.048;2022-12-18T00:40:01;-4.50;1.00
18305;DHT22;9278;52.156;21.048;2022-12-18T00:42:30;-4.40;1.00
18305;DHT22;9278;52.156;21.048;2022-12-18T00:45:15;-4.50;1.00
18305;DHT22;9278;52.156;21.048;2022-12-18T00:47:45;-4.40;1.00
18305;DHT22;9278;52.156;21.048;2022-12-18T00:50:13;-4.30;1.00
18305;DHT22;9278;52.156;21.048;2022-12-18T00:52:43;-4.30;1.00
18305;DHT22;9278;52.156;21.048;2022-12-18T00:55:11;-4.30;1.00
18305;DHT22;9278;52.156;21.048;2022-12-18T00:57:40;-4.30;1.00
18305;DHT22;9278;52.156;21.048;2022-12-18T01:00:10;-4.30;1.00
18305;DHT22;9278;52.156;21.048;2022-12-18T01:02:40;-4.20;1.00
18305;DHT22;9278;52.156;21.048;2022-12-18T01:05:10;-4.20;1.00
18305;DHT22;9278;52.156;21.048;2022-12-18T01:07:39;-4.20;1.00
18305;DHT22;9278;52.156;21.048;2022-12-18T01:10:12;-4.20;1.00
18305;DHT22;9278;52.156;21.048;2022-12-18T01:12:40;-4.30;1.00
18305;DHT22;9278;52.156;21.048;2022-12-18T01:15:10;-4.20;1.00
18305;DHT22;9278;52.156;21.048;2022-12-18T01:17:39;-4.20;1.00
18305;DHT22;9278;52.156;21.048;2022-12-18T01:20:09;-4.30;1.00
18305;DHT22;9278;52.156;21.048;2022-12-18T01:22:38;-4.20;1.00
18305;DHT22;9278;52.156;21.048;2022-12-18T01:25:08;-4.20;1.00
18305;DHT22;9278;52.156;21.048;2022-12-18T01:27:37;-4.20;1.00
18305;DHT22;9278;52.156;21.048;2022-12-18T01:30:06;-4.10;1.00
18305;DHT22;9278;52.156;21.048;2022-12-18T01:32:34;-4.20;1.00
18305;DHT22;9278;52.156;21.048;2022-12-18T01:35:03;-4.20;1.00
18305;DHT22;9278;52.156;21.048;2022-12-18T01:37:31;-4.20;1.00
18305;DHT22;9278;52.156;21.048;2022-12-18T01:39:59;-4.10;1.00
18305;DHT22;9278;52.156;21.048;2022-12-18T01:42:29;-4.10;1.00
18305;DHT22;9278;52.156;21.048;2022-12-18T01:45:04;-4.10;1.00
18305;DHT22;9278;52.156;21.048;2022-12-18T01:47:36;-4.10;1.00
18305;DHT22;9278;52.156;21.048;2022-12-18T01:50:09;-4.00;1.00
18305;DHT22;9278;52.156;21.048;2022-12-18T01:52:38;-4.00;1.00
18305;DHT22;9278;52.156;21.048;2022-12-18T01:55:10;-4.00;1.00
18305;DHT22;9278;52.156;21.048;2022-12-18T01:57:40;-4.10;1.00
18305;DHT22;9278;52.156;21.048;2022-12-18T02:00:12;-4.10;1.00
18305;DHT22;9278;52.156;21.048;2022-12-18T02:02:43;-4.20;1.00
18305;DHT22;9278;52.156;21.048;2022-12-18T02:05:15;-4.20;1.00
18305;DHT22;9278;52.156;21.048;2022-12-18T02:07:53;-4.10;1.00
18305;DHT22;9278;52.156;21.048;2022-12-18T02:10:30;-4.00;1.00
18305;DHT22;9278;52.156;21.048;2022-12-18T02:13:07;-4.10;1.00
18305;DHT22;9278;52.156;21.048;2022-12-18T02:15:46;-4.10;1.00
18305;DHT22;9278;52.156;21.048;2022-12-18T02:18:19;-4.00;1.00
18305;DHT22;9278;52.156;21.048;2022-12-18T02:20:55;-4.00;1.00
18305;DHT22;9278;52.156;21.048;2022-12-18T02:23:38;-4.20;1.00
18305;DHT22;9278;52.156;21.048;2022-12-18T02:26:15;-4.10;1.00
18305;DHT22;9278;52.156;21.048;2022-12-18T02:28:47;-4.10;1.00
18305;DHT22;9278;52.156;21.048;2022-12-18T02:31:21;-4.00;1.00
18305;DHT22;9278;52.156;21.048;2022-12-18T02:33:51;-4.00;1.00
18305;DHT22;9278;52.156;21.048;2022-12-18T02:36:21;-4.00;1.00
18305;DHT22;9278;52.156;21.048;2022-12-18T02:38:50;-4.00;1.00
18305;DHT22;9278;52.156;21.048;2022-12-18T02:41:24;-4.00;1.00
18305;DHT22;9278;52.156;21.048;2022-12-18T02:43:55;-3.80;1.00
18305;DHT22;9278;52.156;21.048;2022-12-18T02:46:31;-3.90;1.00
18305;DHT22;9278;52.156;21.048;2022-12-18T02:49:14;-3.90;1.00
18305;DHT22;9278;52.156;21.048;2022-12-18T02:51:50;-4.00;1.00
18305;DHT22;9278;52.156;21.048;2022-12-18T02:54:29;-4.00;1.00
18305;DHT22;9278;52.156;21.048;2022-12-18T02:57:08;-4.00;1.00
18305;DHT22;9278;52.156;21.048;2022-12-18T02:59:51;-4.10;1.00
18305;DHT22;9278;52.156;21.048;2022-12-18T03:02:25;-4.00;1.00
18305;DHT22;9278;52.156;21.048;2022-12-18T03:05:01;-4.10;1.00
18305;DHT22;9278;52.156;21.048;2022-12-18T03:07:35;-4.00;1.00
18305;DHT22;9278;52.156;21.048;2022-12-18T03:10:13;-4.00;1.00
18305;DHT22;9278;52.156;21.048;2022-12-18T03:12:47;-4.00;1.00
18305;DHT22;9278;52.156;21.048;2022-12-18T03:15:20;-4.00;1.00
18305;DHT22;9278;52.156;21.048;2022-12-18T03:18:01;-4.00;1.00
18305;DHT22;9278;52.156;21.048;2022-12-18T03:20:33;-4.00;1.00
18305;DHT22;9278;52.156;21.048;2022-12-18T03:23:06;-4.00;1.00
18305;DHT22;9278;52.156;21.048;2022-12-18T03:25:39;-3.40;1.00
18305;DHT22;9278;52.156;21.048;2022-12-18T03:28:12;-4.00;1.00
18305;DHT22;9278;52.156;21.048;2022-12-18T03:30:43;-4.10;1.00
18305;DHT22;9278;52.156;21.048;2022-12-18T03:33:16;-4.20;1.00
18305;DHT22;9278;52.156;21.048;2022-12-18T03:35:49;-4.10;1.00
18305;DHT22;9278;52.156;21.048;2022-12-18T03:38:18;-4.10;1.00
18305;DHT22;9278;52.156;21.048;2022-12-18T03:40:56;-4.20;1.00
18305;DHT22;9278;52.156;21.048;2022-12-18T03:43:37;-4.10;1.00
18305;DHT22;9278;52.156;21.048;2022-12-18T03:46:17;-4.00;1.00
18305;DHT22;9278;52.156;21.048;2022-12-18T03:49:01;-4.10;1.00
18305;DHT22;9278;52.156;21.048;2022-12-18T03:51:40;-4.20;1.00
18305;DHT22;9278;52.156;21.048;2022-12-18T03:54:11;-4.20;1.00
18305;DHT22;9278;52.156;21.048;2022-12-18T03:56:51;-4.20;1.00
18305;DHT22;9278;52.156;21.048;2022-12-18T03:59:24;-4.20;1.00
18305;DHT22;9278;52.156;21.048;2022-12-18T04:01:56;-4.20;1.00
18305;DHT22;9278;52.156;21.048;2022-12-18T04:04:27;-4.10;1.00
18305;DHT22;9278;52.156;21.048;2022-12-18T04:06:59;-4.20;1.00
18305;DHT22;9278;52.156;21.048;2022-12-18T04:09:30;-4.20;1.00
18305;DHT22;9278;52.156;21.048;2022-12-18T04:12:00;-4.20;1.00
18305;DHT22;9278;52.156;21.048;2022-12-18T04:14:30;-4.20;1.00
18305;DHT22;9278;52.156;21.048;2022-12-18T04:17:04;-4.30;1.00
18305;DHT22;9278;52.156;21.048;2022-12-18T04:19:33;-4.20;1.00
18305;DHT22;9278;52.156;21.048;2022-12-18T04:22:02;-4.20;1.00
18305;DHT22;9278;52.156;21.048;2022-12-18T04:24:37;-4.30;1.00
18305;DHT22;9278;52.156;21.048;2022-12-18T04:27:16;-4.30;1.00
18305;DHT22;9278;52.156;21.048;2022-12-18T04:29:49;-4.40;1.00
18305;DHT22;9278;52.156;21.048;2022-12-18T04:32:18;-4.40;1.00
18305;DHT22;9278;52.156;21.048;2022-12-18T04:34:49;-4.30;1.00
18305;DHT22;9278;52.156;21.048;2022-12-18T04:37:17;-4.30;1.00
18305;DHT22;9278;52.156;21.048;2022-12-18T04:39:48;-4.30;1.00
18305;DHT22;9278;52.156;21.048;2022-12-18T04:42:23;-4.30;1.00
18305;DHT22;9278;52.156;21.048;2022-12-18T04:44:53;-4.40;1.00
18305;DHT22;9278;52.156;21.048;2022-12-18T04:47:21;-4.40;1.00
18305;DHT22;9278;52.156;21.048;2022-12-18T04:49:49;-4.50;1.00
18305;DHT22;9278;52.156;21.048;2022-12-18T04:52:17;-4.70;1.00
18305;DHT22;9278;52.156;21.048;2022-12-18T04:54:46;-4.80;1.00
18305;DHT22;9278;52.156;21.048;2022-12-18T04:57:14;-4.80;1.00
18305;DHT22;9278;52.156;21.048;2022-12-18T04:59:42;-4.80;1.00
18305;DHT22;9278;52.156;21.048;2022-12-18T05:02:11;-4.90;1.00
18305;DHT22;9278;52.156;21.048;2022-12-18T05:04:40;-4.90;1.00
18305;DHT22;9278;52.156;21.048;2022-12-18T05:07:08;-5.00;1.00
18305;DHT22;9278;52.156;21.048;2022-12-18T05:09:36;-5.00;1.00
18305;DHT22;9278;52.156;21.048;2022-12-18T05:12:04;-5.00;1.00
18305;DHT22;9278;52.156;21.048;2022-12-18T05:14:33;-5.00;1.00
18305;DHT22;9278;52.156;21.048;2022-12-18T05:17:01;-5.10;1.00
18305;DHT22;9278;52.156;21.048;2022-12-18T05:19:30;-5.10;1.00
18305;DHT22;9278;52.156;21.048;2022-12-18T05:21:58;-5.10;1.00
18305;DHT22;9278;52.156;21.048;2022-12-18T05:24:28;-5.10;1.00
18305;DHT22;9278;52.156;21.048;2022-12-18T05:26:56;-5.00;1.00
18305;DHT22;9278;52.156;21.048;2022-12-18T05:29:24;-5.00;1.00
18305;DHT22;9278;52.156;21.048;2022-12-18T05:31:52;-5.00;1.00
18305;DHT22;9278;52.156;21.048;2022-12-18T05:34:21;-5.00;1.00
18305;DHT22;9278;52.156;21.048;2022-12-18T05:36:50;-4.90;1.00
18305;DHT22;9278;52.156;21.048;2022-12-18T05:39:18;-4.90;1.00
18305;DHT22;9278;52.156;21.048;2022-12-18T05:41:46;-5.00;1.00
18305;DHT22;9278;52.156;21.048;2022-12-18T05:44:14;-5.00;1.00
18305;DHT22;9278;52.156;21.048;2022-12-18T05:46:43;-5.00;1.00
18305;DHT22;9278;52.156;21.048;2022-12-18T05:49:11;-5.00;1.00
18305;DHT22;9278;52.156;21.048;2022-12-18T05:51:39;-5.10;1.00
18305;DHT22;9278;52.156;21.048;2022-12-18T05:54:09;-5.00;1.00
18305;DHT22;9278;52.156;21.048;2022-12-18T05:56:37;-5.00;1.00
18305;DHT22;9278;52.156;21.048;2022-12-18T05:59:12;-5.00;1.00
18305;DHT22;9278;52.156;21.048;2022-12-18T06:01:41;-5.10;1.00
18305;DHT22;9278;52.156;21.048;2022-12-18T06:04:10;-4.90;1.00
18305;DHT22;9278;52.156;21.048;2022-12-18T06:06:38;-5.00;1.00
18305;DHT22;9278;52.156;21.048;2022-12-18T06:09:06;-5.00;1.00
18305;DHT22;9278;52.156;21.048;2022-12-18T06:11:37;-5.10;1.00
18305;DHT22;9278;52.156;21.048;2022-12-18T06:14:06;-5.20;1.00
18305;DHT22;9278;52.156;21.048;2022-12-18T06:16:34;-5.20;1.00
18305;DHT22;9278;52.156;21.048;2022-12-18T06:19:04;-5.00;1.00
18305;DHT22;9278;52.156;21.048;2022-12-18T06:21:33;-5.00;1.00
18305;DHT22;9278;52.156;21.048;2022-12-18T06:24:02;-5.10;1.00
18305;DHT22;9278;52.156;21.048;2022-12-18T06:26:30;-5.00;1.00
18305;DHT22;9278;52.156;21.048;2022-12-18T06:28:59;-5.00;1.00
18305;DHT22;9278;52.156;21.048;2022-12-18T06:31:28;-4.90;1.00
18305;DHT22;9278;52.156;21.048;2022-12-18T06:33:56;-4.80;1.00
18305;DHT22;9278;52.156;21.048;2022-12-18T06:36:24;-4.80;1.00
18305;DHT22;9278;52.156;21.048;2022-12-18T06:38:52;-4.80;1.00
18305;DHT22;9278;52.156;21.048;2022-12-18T06:41:21;-4.80;1.00
18305;DHT22;9278;52.156;21.048;2022-12-18T06:43:49;-4.50;1.00
18305;DHT22;9278;52.156;21.048;2022-12-18T06:46:25;-4.70;1.00
18305;DHT22;9278;52.156;21.048;2022-12-18T06:48:53;-4.80;1.00
18305;DHT22;9278;52.156;21.048;2022-12-18T06:51:22;-4.70;1.00
18305;DHT22;9278;52.156;21.048;2022-12-18T06:53:51;-4.70;1.00
18305;DHT22;9278;52.156;21.048;2022-12-18T06:56:19;-4.60;1.00
18305;DHT22;9278;52.156;21.048;2022-12-18T06:58:47;-4.60;1.00
18305;DHT22;9278;52.156;21.048;2022-12-18T07:01:15;-4.40;1.00
18305;DHT22;9278;52.156;21.048;2022-12-18T07:03:45;-4.40;1.00
18305;DHT22;9278;52.156;21.048;2022-12-18T07:06:15;-4.50;1.00
18305;DHT22;9278;52.156;21.048;2022-12-18T07:08:43;-4.60;1.00
18305;DHT22;9278;52.156;21.048;2022-12-18T07:11:12;-4.60;1.00
18305;DHT22;9278;52.156;21.048;2022-12-18T07:13:40;-4.60;1.00
18305;DHT22;9278;52.156;21.048;2022-12-18T07:16:11;-4.70;1.00
18305;DHT22;9278;52.156;21.048;2022-12-18T07:18:51;-4.50;1.00
18305;DHT22;9278;52.156;21.048;2022-12-18T07:21:19;-4.40;1.00
18305;DHT22;9278;52.156;21.048;2022-12-18T07:23:48;-4.40;1.00
18305;DHT22;9278;52.156;21.048;2022-12-18T07:26:18;-4.40;1.00
18305;DHT22;9278;52.156;21.048;2022-12-18T07:28:47;-4.40;1.00
18305;DHT22;9278;52.156;21.048;2022-12-18T07:31:17;-4.20;1.00
18305;DHT22;9278;52.156;21.048;2022-12-18T07:33:47;-4.40;1.00
18305;DHT22;9278;52.156;21.048;2022-12-18T07:36:18;-4.30;1.00
18305;DHT22;9278;52.156;21.048;2022-12-18T07:38:47;-4.10;1.00
18305;DHT22;9278;52.156;21.048;2022-12-18T07:41:16;-4.10;1.00
18305;DHT22;9278;52.156;21.048;2022-12-18T07:43:46;-4.00;1.00
18305;DHT22;9278;52.156;21.048;2022-12-18T07:46:14;-4.00;1.00
18305;DHT22;9278;52.156;21.048;2022-12-18T07:48:43;-4.00;1.00
18305;DHT22;9278;52.156;21.048;2022-12-18T07:51:18;-4.10;1.00
18305;DHT22;9278;52.156;21.048;2022-12-18T07:53:46;-4.20;1.00
18305;DHT22;9278;52.156;21.048;2022-12-18T07:56:18;-4.20;1.00
18305;DHT22;9278;52.156;21.048;2022-12-18T07:58:57;-4.30;1.00
18305;DHT22;9278;52.156;21.048;2022-12-18T08:01:25;-4.20;1.00
18305;DHT22;9278;52.156;21.048;2022-12-18T08:03:53;-3.90;1.00
18305;DHT22;9278;52.156;21.048;2022-12-18T08:06:23;-4.10;1.00
18305;DHT22;9278;52.156;21.048;2022-12-18T08:08:52;-3.90;1.00
18305;DHT22;9278;52.156;21.048;2022-12-18T08:11:21;-3.90;1.00
18305;DHT22;9278;52.156;21.048;2022-12-18T08:13:49;-3.60;1.00
18305;DHT22;9278;52.156;21.048;2022-12-18T08:16:18;-3.90;1.00
18305;DHT22;9278;52.156;21.048;2022-12-18T08:18:47;-4.10;1.00
18305;DHT22;9278;52.156;21.048;2022-12-18T08:21:17;-4.20;1.00
18305;DHT22;9278;52.156;21.048;2022-12-18T08:23:49;-4.30;1.00
18305;DHT22;9278;52.156;21.048;2022-12-18T08:26:19;-4.30;1.00
18305;DHT22;9278;52.156;21.048;2022-12-18T08:28:48;-4.30;1.00
18305;DHT22;9278;52.156;21.048;2022-12-18T08:31:17;-4.10;1.00
18305;DHT22;9278;52.156;21.048;2022-12-18T08:33:47;-4.20;1.00
18305;DHT22;9278;52.156;21.048;2022-12-18T08:36:16;-4.20;1.00
18305;DHT22;9278;52.156;21.048;2022-12-18T08:38:45;-3.90;1.00
18305;DHT22;9278;52.156;21.048;2022-12-18T08:41:16;-3.80;1.00
18305;DHT22;9278;52.156;21.048;2022-12-18T08:43:45;-3.50;1.00
18305;DHT22;9278;52.156;21.048;2022-12-18T08:46:36;-3.60;1.00
18305;DHT22;9278;52.156;21.048;2022-12-18T08:49:06;-3.80;1.00
18305;DHT22;9278;52.156;21.048;2022-12-18T08:51:35;-3.80;1.00
18305;DHT22;9278;52.156;21.048;2022-12-18T08:54:04;-3.30;1.00
18305;DHT22;9278;52.156;21.048;2022-12-18T08:56:34;-3.10;1.00
18305;DHT22;9278;52.156;21.048;2022-12-18T08:59:02;-3.10;1.00
18305;DHT22;9278;52.156;21.048;2022-12-18T09:01:31;-3.00;1.00
18305;DHT22;9278;52.156;21.048;2022-12-18T09:04:01;-3.00;1.00
18305;DHT22;9278;52.156;21.048;2022-12-18T09:06:30;-3.50;1.00
18305;DHT22;9278;52.156;21.048;2022-12-18T09:08:58;-3.20;1.00
18305;DHT22;9278;52.156;21.048;2022-12-18T09:11:28;-3.10;1.00
18305;DHT22;9278;52.156;21.048;2022-12-18T09:13:59;-3.20;1.00
18305;DHT22;9278;52.156;21.048;2022-12-18T09:16:28;-3.10;1.00
18305;DHT22;9278;52.156;21.048;2022-12-18T09:18:59;-3.20;1.00
18305;DHT22;9278;52.156;21.048;2022-12-18T09:21:29;-3.30;1.00
18305;DHT22;9278;52.156;21.048;2022-12-18T09:24:03;-3.30;1.00
18305;DHT22;9278;52.156;21.048;2022-12-18T09:26:34;-3.20;1.00
18305;DHT22;9278;52.156;21.048;2022-12-18T09:29:05;-2.70;1.00
18305;DHT22;9278;52.156;21.048;2022-12-18T09:31:36;-2.60;1.00
18305;DHT22;9278;52.156;21.048;2022-12-18T09:34:06;-2.40;1.00
18305;DHT22;9278;52.156;21.048;2022-12-18T09:36:34;-2.60;1.00
18305;DHT22;9278;52.156;21.048;2022-12-18T09:39:02;-2.70;1.00
18305;DHT22;9278;52.156;21.048;2022-12-18T09:41:44;-3.10;1.00
18305;DHT22;9278;52.156;21.048;2022-12-18T09:44:27;-2.80;1.00
18305;DHT22;9278;52.156;21.048;2022-12-18T09:47:04;-2.40;1.00
18305;DHT22;9278;52.156;21.048;2022-12-18T09:49:36;-2.30;1.00
18305;DHT22;9278;52.156;21.048;2022-12-18T09:52:11;-2.40;1.00
18305;DHT22;9278;52.156;21.048;2022-12-18T09:54:43;-2.70;1.00
18305;DHT22;9278;52.156;21.048;2022-12-18T09:57:14;-2.70;1.00
18305;DHT22;9278;52.156;21.048;2022-12-18T09:59:49;-2.30;1.00
18305;DHT22;9278;52.156;21.048;2022-12-18T10:02:21;-1.60;1.00
18305;DHT22;9278;52.156;21.048;2022-12-18T10:05:00;-2.40;1.00
18305;DHT22;9278;52.156;21.048;2022-12-18T10:07:36;-2.70;1.00
18305;DHT22;9278;52.156;21.048;2022-12-18T10:10:14;-2.70;1.00
18305;DHT22;9278;52.156;21.048;2022-12-18T10:12:50;-2.60;1.00
18305;DHT22;9278;52.156;21.048;2022-12-18T10:15:36;-2.80;1.00
18305;DHT22;9278;52.156;21.048;2022-12-18T10:18:19;-2.70;1.00
18305;DHT22;9278;52.156;21.048;2022-12-18T10:20:52;-2.50;1.00
18305;DHT22;9278;52.156;21.048;2022-12-18T10:23:25;-2.70;1.00
18305;DHT22;9278;52.156;21.048;2022-12-18T10:26:00;-2.80;1.00
18305;DHT22;9278;52.156;21.048;2022-12-18T10:28:31;-3.00;1.00
18305;DHT22;9278;52.156;21.048;2022-12-18T10:31:01;-2.70;1.00
18305;DHT22;9278;52.156;21.048;2022-12-18T10:33:31;-2.50;1.00
18305;DHT22;9278;52.156;21.048;2022-12-18T10:36:00;-2.80;1.00
18305;DHT22;9278;52.156;21.048;2022-12-18T10:38:31;-3.20;1.00
18305;DHT22;9278;52.156;21.048;2022-12-18T10:41:01;-3.20;1.00
18305;DHT22;9278;52.156;21.048;2022-12-18T10:43:31;-3.20;1.00
18305;DHT22;9278;52.156;21.048;2022-12-18T10:46:11;-3.00;1.00
18305;DHT22;9278;52.156;21.048;2022-12-18T10:48:50;-2.60;1.00
18305;DHT22;9278;52.156;21.048;2022-12-18T10:51:22;-2.30;1.00
